sensor_id;sensor_type;location;lat;lon;timestamp;pressure;altitude;pressure_sealevel;temperature;humidity
22104;BME280;11218;48.886;9.426;2023-08-12T00:01:22;98246.25;;;21.71;72.60
22104;BME280;11218;48.886;9.426;2023-08-12T00:03:51;98250.25;;;21.64;72.91
22104;BME280;11218;48.886;9.426;2023-08-12T00:06:20;98245.22;;;21.58;73.02
22104;BME280;11218;48.886;9.426;2023-08-12T00:08:48;98241.06;;;21.52;73.02
22104;BME280;11218;48.886;9.426;2023-08-12T00:11:16;98250.53;;;21.46;73.47
22104;BME280;11218;48.886;9.426;2023-08-12T00:13:45;98245.81;;;21.38;73.75
22104;BME280;11218;48.886;9.426;2023-08-12T00:16:13;98243.41;;;21.36;74.44
22104;BME280;11218;48.886;9.426;2023-08-12T00:18:41;98239.34;;;21.34;74.60
22104;BME280;11218;48.886;9.426;2023-08-12T00:21:10;98238.72;;;21.37;74.55
22104;BME280;11218;48.886;9.426;2023-08-12T00:23:40;98225.03;;;21.37;74.66
22104;BME280;11218;48.886;9.426;2023-08-12T00:26:10;98236.97;;;21.41;74.63
22104;BME280;11218;48.886;9.426;2023-08-12T00:28:38;98231.31;;;21.37;74.40
22104;BME280;11218;48.886;9.426;2023-08-12T00:31:07;98232.31;;;21.41;74.18
22104;BME280;11218;48.886;9.426;2023-08-12T00:33:36;98213.59;;;21.35;74.45
22104;BME280;11218;48.886;9.426;2023-08-12T00:36:04;98207.59;;;21.33;74.44
22104;BME280;11218;48.886;9.426;2023-08-12T00:38:32;98208.28;;;21.38;74.33
22104;BME280;11218;48.886;9.426;2023-08-12T00:41:00;98212.94;;;21.38;74.41
22104;BME280;11218;48.886;9.426;2023-08-12T00:43:29;98205.03;;;21.36;74.36
22104;BME280;11218;48.886;9.426;2023-08-12T00:45:57;98200.19;;;21.33;74.07
22104;BME280;11218;48.886;9.426;2023-08-12T00:48:27;98194.38;;;21.26;74.55
22104;BME280;11218;48.886;9.426;2023-08-12T00:50:55;98193.88;;;21.24;75.05
22104;BME280;11218;48.886;9.426;2023-08-12T00:53:23;98189.22;;;21.24;74.61
22104;BME280;11218;48.886;9.426;2023-08-12T00:55:51;98198.22;;;21.25;74.61
22104;BME280;11218;48.886;9.426;2023-08-12T00:58:19;98196.31;;;21.25;74.24
22104;BME280;11218;48.886;9.426;2023-08-12T01:00:48;98195.50;;;21.25;73.70
22104;BME280;11218;48.886;9.426;2023-08-12T01:03:16;98189.22;;;21.24;73.36
22104;BME280;11218;48.886;9.426;2023-08-12T01:05:47;98191.25;;;21.19;74.24
22104;BME280;11218;48.886;9.426;2023-08-12T01:08:16;98183.47;;;21.12;74.10
22104;BME280;11218;48.886;9.426;2023-08-12T01:10:52;98190.56;;;21.13;74.72
22104;BME280;11218;48.886;9.426;2023-08-12T01:13:32;98185.72;;;21.10;74.93
22104;BME280;11218;48.886;9.426;2023-08-12T01:16:03;98166.38;;;21.07;74.63
22104;BME280;11218;48.886;9.426;2023-08-12T01:18:33;98168.81;;;21.08;74.70
22104;BME280;11218;48.886;9.426;2023-08-12T01:21:04;98164.63;;;21.11;74.89
22104;BME280;11218;48.886;9.426;2023-08-12T01:23:37;98165.13;;;21.13;74.86
22104;BME280;11218;48.886;9.426;2023-08-12T01:26:05;98168.19;;;21.11;74.56
22104;BME280;11218;48.886;9.426;2023-08-12T01:28:33;98170.28;;;21.14;74.43
22104;BME280;11218;48.886;9.426;2023-08-12T01:31:11;98168.22;;;21.20;74.39
22104;BME280;11218;48.886;9.426;2023-08-12T01:33:46;98166.00;;;21.22;74.27
22104;BME280;11218;48.886;9.426;2023-08-12T01:36:16;98157.16;;;21.25;74.01
22104;BME280;11218;48.886;9.426;2023-08-12T01:38:47;98155.22;;;21.25;73.62
22104;BME280;11218;48.886;9.426;2023-08-12T01:41:18;98158.78;;;21.26;73.82
22104;BME280;11218;48.886;9.426;2023-08-12T01:43:48;98160.38;;;21.27;73.66
22104;BME280;11218;48.886;9.426;2023-08-12T01:46:16;98162.63;;;21.25;73.77
22104;BME280;11218;48.886;9.426;2023-08-12T01:48:44;98165.69;;;21.23;73.87
22104;BME280;11218;48.886;9.426;2023-08-12T01:51:12;98153.41;;;21.21;73.64
22104;BME280;11218;48.886;9.426;2023-08-12T01:53:40;98161.44;;;21.17;73.82
22104;BME280;11218;48.886;9.426;2023-08-12T01:56:10;98156.78;;;21.18;73.71
22104;BME280;11218;48.886;9.426;2023-08-12T01:58:38;98160.94;;;21.15;74.05
22104;BME280;11218;48.886;9.426;2023-08-12T02:01:06;98153.84;;;21.14;74.26
22104;BME280;11218;48.886;9.426;2023-08-12T02:03:34;98160.47;;;21.13;73.85
22104;BME280;11218;48.886;9.426;2023-08-12T02:06:02;98152.56;;;21.12;73.80
22104;BME280;11218;48.886;9.426;2023-08-12T02:08:30;98145.78;;;21.09;74.08
22104;BME280;11218;48.886;9.426;2023-08-12T02:10:58;98156.59;;;21.14;74.22
22104;BME280;11218;48.886;9.426;2023-08-12T02:13:28;98156.91;;;21.13;73.77
22104;BME280;11218;48.886;9.426;2023-08-12T02:15:56;98148.88;;;21.16;73.97
22104;BME280;11218;48.886;9.426;2023-08-12T02:18:24;98152.72;;;21.15;73.94
22104;BME280;11218;48.886;9.426;2023-08-12T02:20:52;98149.03;;;21.20;73.64
22104;BME280;11218;48.886;9.426;2023-08-12T02:23:20;98151.19;;;21.23;73.49
22104;BME280;11218;48.886;9.426;2023-08-12T02:25:48;98150.88;;;21.24;73.37
22104;BME280;11218;48.886;9.426;2023-08-12T02:28:16;98150.25;;;21.27;73.43
22104;BME280;11218;48.886;9.426;2023-08-12T02:30:46;98149.44;;;21.27;73.29
22104;BME280;11218;48.886;9.426;2023-08-12T02:33:14;98148.75;;;21.21;73.64
22104;BME280;11218;48.886;9.426;2023-08-12T02:35:42;98146.31;;;21.20;73.66
22104;BME280;11218;48.886;9.426;2023-08-12T02:38:10;98139.53;;;21.17;73.96
22104;BME280;11218;48.886;9.426;2023-08-12T02:40:38;98138.56;;;21.13;74.35
22104;BME280;11218;48.886;9.426;2023-08-12T02:43:06;98150.31;;;21.14;74.56
22104;BME280;11218;48.886;9.426;2023-08-12T02:45:37;98139.84;;;21.16;74.24
22104;BME280;11218;48.886;9.426;2023-08-12T02:48:07;98130.19;;;21.18;74.09
22104;BME280;11218;48.886;9.426;2023-08-12T02:50:35;98129.59;;;21.21;74.23
22104;BME280;11218;48.886;9.426;2023-08-12T02:53:04;98126.53;;;21.23;73.77
22104;BME280;11218;48.886;9.426;2023-08-12T02:55:32;98119.94;;;21.24;74.25
22104;BME280;11218;48.886;9.426;2023-08-12T02:58:01;98114.31;;;21.29;73.89
22104;BME280;11218;48.886;9.426;2023-08-12T03:00:30;98112.88;;;21.31;73.88
22104;BME280;11218;48.886;9.426;2023-08-12T03:02:58;98107.09;;;21.33;73.74
22104;BME280;11218;48.886;9.426;2023-08-12T03:05:27;98119.19;;;21.41;73.48
22104;BME280;11218;48.886;9.426;2023-08-12T03:07:56;98113.72;;;21.41;73.61
22104;BME280;11218;48.886;9.426;2023-08-12T03:10:24;98113.56;;;21.46;73.55
22104;BME280;11218;48.886;9.426;2023-08-12T03:12:52;98115.66;;;21.49;73.31
22104;BME280;11218;48.886;9.426;2023-08-12T03:15:20;98118.09;;;21.50;73.19
22104;BME280;11218;48.886;9.426;2023-08-12T03:17:49;98114.53;;;21.50;72.87
22104;BME280;11218;48.886;9.426;2023-08-12T03:20:17;98121.44;;;21.56;73.17
22104;BME280;11218;48.886;9.426;2023-08-12T03:22:46;98114.84;;;21.57;73.08
22104;BME280;11218;48.886;9.426;2023-08-12T03:25:16;98114.53;;;21.58;72.81
22104;BME280;11218;48.886;9.426;2023-08-12T03:27:44;98120.50;;;21.60;72.59
22104;BME280;11218;48.886;9.426;2023-08-12T03:30:12;98113.09;;;21.61;72.76
22104;BME280;11218;48.886;9.426;2023-08-12T03:32:40;98115.81;;;21.61;72.84
22104;BME280;11218;48.886;9.426;2023-08-12T03:35:08;98107.28;;;21.62;72.52
22104;BME280;11218;48.886;9.426;2023-08-12T03:37:36;98106.94;;;21.55;73.19
22104;BME280;11218;48.886;9.426;2023-08-12T03:40:07;98106.50;;;21.53;73.02
22104;BME280;11218;48.886;9.426;2023-08-12T03:42:36;98113.25;;;21.47;72.98
22104;BME280;11218;48.886;9.426;2023-08-12T03:45:05;98111.78;;;21.41;73.80
22104;BME280;11218;48.886;9.426;2023-08-12T03:47:34;98105.81;;;21.39;74.00
22104;BME280;11218;48.886;9.426;2023-08-12T03:50:03;98107.44;;;21.40;74.08
22104;BME280;11218;48.886;9.426;2023-08-12T03:52:31;98107.59;;;21.44;73.76
22104;BME280;11218;48.886;9.426;2023-08-12T03:54:59;98107.91;;;21.42;73.72
22104;BME280;11218;48.886;9.426;2023-08-12T03:57:29;98103.06;;;21.39;73.85
22104;BME280;11218;48.886;9.426;2023-08-12T03:59:58;98112.25;;;21.43;74.11
22104;BME280;11218;48.886;9.426;2023-08-12T04:02:26;98099.53;;;21.39;73.80
22104;BME280;11218;48.886;9.426;2023-08-12T04:04:54;98102.59;;;21.37;73.63
22104;BME280;11218;48.886;9.426;2023-08-12T04:07:22;98104.19;;;21.38;73.59
22104;BME280;11218;48.886;9.426;2023-08-12T04:09:50;98098.72;;;21.38;73.57
22104;BME280;11218;48.886;9.426;2023-08-12T04:12:19;98099.03;;;21.37;73.82
22104;BME280;11218;48.886;9.426;2023-08-12T04:14:48;98103.56;;;21.41;73.48
22104;BME280;11218;48.886;9.426;2023-08-12T04:17:16;98110.66;;;21.42;74.43
22104;BME280;11218;48.886;9.426;2023-08-12T04:19:44;98114.94;;;21.26;75.48
22104;BME280;11218;48.886;9.426;2023-08-12T04:22:13;98121.06;;;21.23;75.54
22104;BME280;11218;48.886;9.426;2023-08-12T04:24:41;98124.41;;;21.20;75.07
22104;BME280;11218;48.886;9.426;2023-08-12T04:27:09;98131.78;;;21.11;75.48
22104;BME280;11218;48.886;9.426;2023-08-12T04:29:37;98134.84;;;21.09;75.65
22104;BME280;11218;48.886;9.426;2023-08-12T04:32:07;98132.41;;;21.08;75.92
22104;BME280;11218;48.886;9.426;2023-08-12T04:34:36;98133.22;;;21.08;75.52
22104;BME280;11218;48.886;9.426;2023-08-12T04:37:04;98126.44;;;21.06;76.15
22104;BME280;11218;48.886;9.426;2023-08-12T04:39:32;98126.13;;;21.07;75.82
22104;BME280;11218;48.886;9.426;2023-08-12T04:42:00;98134.50;;;21.11;76.31
22104;BME280;11218;48.886;9.426;2023-08-12T04:44:28;98126.47;;;21.14;76.27
22104;BME280;11218;48.886;9.426;2023-08-12T04:46:56;98128.41;;;21.14;76.55
22104;BME280;11218;48.886;9.426;2023-08-12T04:49:26;98123.41;;;21.16;76.36
22104;BME280;11218;48.886;9.426;2023-08-12T04:51:54;98124.22;;;21.16;76.49
22104;BME280;11218;48.886;9.426;2023-08-12T04:54:25;98125.84;;;21.17;76.71
22104;BME280;11218;48.886;9.426;2023-08-12T04:56:53;98135.06;;;21.21;76.21
22104;BME280;11218;48.886;9.426;2023-08-12T04:59:22;98132.50;;;21.25;75.56
22104;BME280;11218;48.886;9.426;2023-08-12T05:01:50;98151.19;;;21.23;75.84
22104;BME280;11218;48.886;9.426;2023-08-12T05:04:32;98135.88;;;21.22;75.49
22104;BME280;11218;48.886;9.426;2023-08-12T05:07:00;98156.66;;;21.23;76.51
22104;BME280;11218;48.886;9.426;2023-08-12T05:09:28;98148.13;;;21.24;76.23
22104;BME280;11218;48.886;9.426;2023-08-12T05:11:56;98137.28;;;21.19;76.67
22104;BME280;11218;48.886;9.426;2023-08-12T05:14:24;98149.81;;;21.12;77.11
22104;BME280;11218;48.886;9.426;2023-08-12T05:16:52;98153.38;;;21.12;77.51
22104;BME280;11218;48.886;9.426;2023-08-12T05:19:20;98152.56;;;21.12;77.12
22104;BME280;11218;48.886;9.426;2023-08-12T05:21:50;98137.03;;;20.98;78.01
22104;BME280;11218;48.886;9.426;2023-08-12T05:24:18;98132.38;;;20.99;78.10
22104;BME280;11218;48.886;9.426;2023-08-12T05:26:46;98137.84;;;20.99;78.72
22104;BME280;11218;48.886;9.426;2023-08-12T05:29:15;98146.88;;;20.99;78.73
22104;BME280;11218;48.886;9.426;2023-08-12T05:31:43;98154.75;;;21.01;78.21
22104;BME280;11218;48.886;9.426;2023-08-12T05:34:11;98158.00;;;21.03;78.90
22104;BME280;11218;48.886;9.426;2023-08-12T05:36:39;98145.28;;;21.07;78.69
22104;BME280;11218;48.886;9.426;2023-08-12T05:39:09;98144.97;;;21.09;78.35
22104;BME280;11218;48.886;9.426;2023-08-12T05:41:38;98143.03;;;21.09;78.87
22104;BME280;11218;48.886;9.426;2023-08-12T05:44:06;98134.03;;;21.09;79.12
22104;BME280;11218;48.886;9.426;2023-08-12T05:46:34;98120.50;;;21.12;80.19
22104;BME280;11218;48.886;9.426;2023-08-12T05:49:02;98099.06;;;21.06;80.61
22104;BME280;11218;48.886;9.426;2023-08-12T05:51:30;98106.00;;;21.12;80.44
22104;BME280;11218;48.886;9.426;2023-08-12T05:53:59;98130.50;;;21.17;80.72
22104;BME280;11218;48.886;9.426;2023-08-12T05:56:28;98138.78;;;21.25;80.52
22104;BME280;11218;48.886;9.426;2023-08-12T05:58:58;98146.38;;;21.28;80.66
22104;BME280;11218;48.886;9.426;2023-08-12T06:01:26;98147.03;;;21.34;80.20
22104;BME280;11218;48.886;9.426;2023-08-12T06:03:54;98159.28;;;21.37;79.97
22104;BME280;11218;48.886;9.426;2023-08-12T06:06:22;98155.91;;;21.40;79.28
22104;BME280;11218;48.886;9.426;2023-08-12T06:08:51;98147.06;;;21.43;78.84
22104;BME280;11218;48.886;9.426;2023-08-12T06:11:19;98126.28;;;21.42;79.83
22104;BME280;11218;48.886;9.426;2023-08-12T06:13:48;98111.47;;;21.43;80.15
22104;BME280;11218;48.886;9.426;2023-08-12T06:16:17;98113.88;;;21.44;80.73
22104;BME280;11218;48.886;9.426;2023-08-12T06:18:45;98115.50;;;21.45;81.31
22104;BME280;11218;48.886;9.426;2023-08-12T06:21:13;98111.31;;;21.48;82.24
22104;BME280;11218;48.886;9.426;2023-08-12T06:23:42;98115.03;;;21.52;82.06
22104;BME280;11218;48.886;9.426;2023-08-12T06:26:10;98131.28;;;21.57;82.25
22104;BME280;11218;48.886;9.426;2023-08-12T06:28:38;98149.19;;;21.63;81.85
22104;BME280;11218;48.886;9.426;2023-08-12T06:31:09;98169.19;;;21.72;81.96
22104;BME280;11218;48.886;9.426;2023-08-12T06:33:38;98150.81;;;21.73;82.50
22104;BME280;11218;48.886;9.426;2023-08-12T06:36:06;98136.63;;;21.71;82.62
22104;BME280;11218;48.886;9.426;2023-08-12T06:38:34;98130.00;;;21.63;83.30
22104;BME280;11218;48.886;9.426;2023-08-12T06:41:02;98123.88;;;21.57;84.32
22104;BME280;11218;48.886;9.426;2023-08-12T06:43:31;98122.56;;;21.55;84.70
22104;BME280;11218;48.886;9.426;2023-08-12T06:45:59;98112.78;;;21.54;84.70
22104;BME280;11218;48.886;9.426;2023-08-12T06:48:29;98099.84;;;21.54;84.94
22104;BME280;11218;48.886;9.426;2023-08-12T06:50:57;98092.78;;;21.53;84.70
22104;BME280;11218;48.886;9.426;2023-08-12T06:53:26;98095.19;;;21.55;84.18
22104;BME280;11218;48.886;9.426;2023-08-12T06:55:54;98101.00;;;21.62;84.65
22104;BME280;11218;48.886;9.426;2023-08-12T06:58:22;98108.09;;;21.72;84.80
22104;BME280;11218;48.886;9.426;2023-08-12T07:00:50;98105.06;;;21.82;84.18
22104;BME280;11218;48.886;9.426;2023-08-12T07:03:20;98112.16;;;21.91;83.73
22104;BME280;11218;48.886;9.426;2023-08-12T07:05:49;98113.47;;;22.03;83.33
22104;BME280;11218;48.886;9.426;2023-08-12T07:08:18;98114.75;;;22.14;82.69
22104;BME280;11218;48.886;9.426;2023-08-12T07:10:46;98119.94;;;22.15;82.27
22104;BME280;11218;48.886;9.426;2023-08-12T07:13:14;98120.72;;;22.24;82.10
22104;BME280;11218;48.886;9.426;2023-08-12T07:15:43;98128.59;;;22.35;81.86
22104;BME280;11218;48.886;9.426;2023-08-12T07:18:11;98127.94;;;22.46;81.92
22104;BME280;11218;48.886;9.426;2023-08-12T07:20:39;98124.34;;;22.72;81.53
22104;BME280;11218;48.886;9.426;2023-08-12T07:23:09;98131.41;;;22.99;80.64
22104;BME280;11218;48.886;9.426;2023-08-12T07:25:37;98133.59;;;23.05;78.72
22104;BME280;11218;48.886;9.426;2023-08-12T07:28:05;98136.34;;;23.05;78.71
22104;BME280;11218;48.886;9.426;2023-08-12T07:30:34;98129.56;;;23.03;78.86
22104;BME280;11218;48.886;9.426;2023-08-12T07:33:04;98133.41;;;23.19;79.03
22104;BME280;11218;48.886;9.426;2023-08-12T07:35:32;98135.47;;;23.22;78.86
22104;BME280;11218;48.886;9.426;2023-08-12T07:38:00;98137.88;;;23.32;78.46
22104;BME280;11218;48.886;9.426;2023-08-12T07:40:30;98139.25;;;23.47;78.09
22104;BME280;11218;48.886;9.426;2023-08-12T07:42:58;98142.69;;;23.73;77.22
22104;BME280;11218;48.886;9.426;2023-08-12T07:45:26;98136.44;;;23.85;76.42
22104;BME280;11218;48.886;9.426;2023-08-12T07:47:54;98130.00;;;24.02;75.56
22104;BME280;11218;48.886;9.426;2023-08-12T07:50:22;98138.06;;;24.28;75.89
22104;BME280;11218;48.886;9.426;2023-08-12T07:52:51;98137.13;;;24.44;75.12
22104;BME280;11218;48.886;9.426;2023-08-12T07:55:20;98127.91;;;24.73;73.45
22104;BME280;11218;48.886;9.426;2023-08-12T07:57:54;98131.06;;;24.96;69.87
22104;BME280;11218;48.886;9.426;2023-08-12T08:00:22;98130.97;;;25.29;67.70
22104;BME280;11218;48.886;9.426;2023-08-12T08:02:50;98128.91;;;25.50;64.86
22104;BME280;11218;48.886;9.426;2023-08-12T08:05:18;98128.91;;;25.75;64.42
22104;BME280;11218;48.886;9.426;2023-08-12T08:07:46;98128.75;;;25.96;62.12
22104;BME280;11218;48.886;9.426;2023-08-12T08:10:16;98119.28;;;26.09;61.28
22104;BME280;11218;48.886;9.426;2023-08-12T08:12:44;98128.06;;;26.27;60.55
22104;BME280;11218;48.886;9.426;2023-08-12T08:15:14;98125.94;;;26.48;59.60
22104;BME280;11218;48.886;9.426;2023-08-12T08:17:42;98123.78;;;26.69;58.93
22104;BME280;11218;48.886;9.426;2023-08-12T08:20:10;98123.16;;;26.92;57.96
22104;BME280;11218;48.886;9.426;2023-08-12T08:22:38;98120.34;;;27.20;57.69
22104;BME280;11218;48.886;9.426;2023-08-12T08:25:07;98128.09;;;27.45;57.56
22104;BME280;11218;48.886;9.426;2023-08-12T08:27:35;98119.94;;;27.68;55.04
22104;BME280;11218;48.886;9.426;2023-08-12T08:30:05;98113.22;;;27.85;55.91
22104;BME280;11218;48.886;9.426;2023-08-12T08:32:35;98109.88;;;27.95;55.90
22104;BME280;11218;48.886;9.426;2023-08-12T08:35:04;98105.19;;;27.80;56.43
22104;BME280;11218;48.886;9.426;2023-08-12T08:37:32;98105.28;;;27.84;56.55
22104;BME280;11218;48.886;9.426;2023-08-12T08:40:00;98097.88;;;28.07;56.82
22104;BME280;11218;48.886;9.426;2023-08-12T08:42:30;98095.31;;;28.37;55.96
22104;BME280;11218;48.886;9.426;2023-08-12T08:45:01;98102.44;;;28.57;55.20
22104;BME280;11218;48.886;9.426;2023-08-12T08:47:31;98105.94;;;28.54;54.81
22104;BME280;11218;48.886;9.426;2023-08-12T08:50:03;98112.16;;;28.48;54.79
22104;BME280;11218;48.886;9.426;2023-08-12T08:52:32;98109.09;;;28.33;54.42
22104;BME280;11218;48.886;9.426;2023-08-12T08:55:01;98111.28;;;28.43;54.66
22104;BME280;11218;48.886;9.426;2023-08-12T08:57:34;98113.72;;;28.68;53.12
22104;BME280;11218;48.886;9.426;2023-08-12T09:00:14;98119.94;;;29.03;54.23
22104;BME280;11218;48.886;9.426;2023-08-12T09:02:44;98116.66;;;29.21;53.64
22104;BME280;11218;48.886;9.426;2023-08-12T09:05:16;98114.13;;;29.12;53.45
22104;BME280;11218;48.886;9.426;2023-08-12T09:07:45;98116.66;;;29.21;52.13
22104;BME280;11218;48.886;9.426;2023-08-12T09:10:14;98109.94;;;29.22;52.13
22104;BME280;11218;48.886;9.426;2023-08-12T09:12:42;98117.97;;;29.50;52.40
22104;BME280;11218;48.886;9.426;2023-08-12T09:15:11;98118.69;;;29.73;51.87
22104;BME280;11218;48.886;9.426;2023-08-12T09:17:39;98112.81;;;29.78;51.51
22104;BME280;11218;48.886;9.426;2023-08-12T09:20:07;98118.03;;;29.83;51.50
22104;BME280;11218;48.886;9.426;2023-08-12T09:22:41;98117.97;;;30.06;51.55
22104;BME280;11218;48.886;9.426;2023-08-12T09:25:10;98101.41;;;30.13;50.83
22104;BME280;11218;48.886;9.426;2023-08-12T09:27:38;98108.31;;;30.26;51.07
22104;BME280;11218;48.886;9.426;2023-08-12T09:30:07;98104.84;;;30.33;49.16
22104;BME280;11218;48.886;9.426;2023-08-12T09:32:35;98100.19;;;30.11;50.74
22104;BME280;11218;48.886;9.426;2023-08-12T09:35:09;98099.69;;;30.35;50.41
22104;BME280;11218;48.886;9.426;2023-08-12T09:37:44;98102.66;;;30.53;49.76
22104;BME280;11218;48.886;9.426;2023-08-12T09:40:12;98102.47;;;30.68;47.25
22104;BME280;11218;48.886;9.426;2023-08-12T09:42:44;98094.81;;;30.58;47.84
22104;BME280;11218;48.886;9.426;2023-08-12T09:45:14;98100.56;;;30.76;48.59
22104;BME280;11218;48.886;9.426;2023-08-12T09:47:43;98093.56;;;30.93;48.28
22104;BME280;11218;48.886;9.426;2023-08-12T09:50:11;98100.06;;;31.08;45.39
22104;BME280;11218;48.886;9.426;2023-08-12T09:52:40;98099.56;;;30.95;46.08
22104;BME280;11218;48.886;9.426;2023-08-12T09:55:11;98097.25;;;31.04;46.60
22104;BME280;11218;48.886;9.426;2023-08-12T09:57:42;98092.25;;;31.24;46.02
22104;BME280;11218;48.886;9.426;2023-08-12T10:00:12;98083.59;;;31.36;45.83
22104;BME280;11218;48.886;9.426;2023-08-12T10:02:44;98080.91;;;31.47;45.01
22104;BME280;11218;48.886;9.426;2023-08-12T10:05:18;98076.22;;;31.61;44.46
22104;BME280;11218;48.886;9.426;2023-08-12T10:07:47;98071.06;;;31.60;43.43
22104;BME280;11218;48.886;9.426;2023-08-12T10:10:17;98073.84;;;31.60;43.39
22104;BME280;11218;48.886;9.426;2023-08-12T10:12:46;98072.56;;;31.50;43.09
22104;BME280;11218;48.886;9.426;2023-08-12T10:15:15;98070.41;;;31.26;43.78
22104;BME280;11218;48.886;9.426;2023-08-12T10:17:43;98073.06;;;31.12;44.34
22104;BME280;11218;48.886;9.426;2023-08-12T10:20:13;98058.63;;;30.95;44.90
22104;BME280;11218;48.886;9.426;2023-08-12T10:22:42;98060.16;;;30.89;44.31
22104;BME280;11218;48.886;9.426;2023-08-12T10:25:13;98038.41;;;30.58;45.23
22104;BME280;11218;48.886;9.426;2023-08-12T10:27:42;98032.66;;;30.40;46.16
22104;BME280;11218;48.886;9.426;2023-08-12T10:30:12;98023.03;;;30.30;46.33
22104;BME280;11218;48.886;9.426;2023-08-12T10:32:42;98018.38;;;30.04;46.05
22104;BME280;11218;48.886;9.426;2023-08-12T10:35:10;98026.13;;;29.92;47.40
22104;BME280;11218;48.886;9.426;2023-08-12T10:37:39;98040.06;;;29.95;48.41
22104;BME280;11218;48.886;9.426;2023-08-12T10:40:20;98046.53;;;30.03;49.50
22104;BME280;11218;48.886;9.426;2023-08-12T10:42:50;98046.75;;;30.21;49.11
22104;BME280;11218;48.886;9.426;2023-08-12T10:45:18;98045.75;;;30.39;48.36
22104;BME280;11218;48.886;9.426;2023-08-12T10:48:09;98061.72;;;30.50;48.41
22104;BME280;11218;48.886;9.426;2023-08-12T10:50:43;98057.41;;;30.56;46.67
22104;BME280;11218;48.886;9.426;2023-08-12T10:53:22;98058.97;;;30.53;45.91
22104;BME280;11218;48.886;9.426;2023-08-12T10:55:55;98049.75;;;30.42;46.83
22104;BME280;11218;48.886;9.426;2023-08-12T10:58:27;98054.09;;;30.39;46.83
22104;BME280;11218;48.886;9.426;2023-08-12T11:00:56;98050.56;;;30.43;46.34
22104;BME280;11218;48.886;9.426;2023-08-12T11:03:25;98053.72;;;30.41;45.58
22104;BME280;11218;48.886;9.426;2023-08-12T11:05:53;98052.81;;;30.30;46.68
22104;BME280;11218;48.886;9.426;2023-08-12T11:08:26;98053.53;;;30.23;47.35
22104;BME280;11218;48.886;9.426;2023-08-12T11:10:56;98047.53;;;30.21;46.69
22104;BME280;11218;48.886;9.426;2023-08-12T11:13:28;98043.03;;;30.10;46.68
22104;BME280;11218;48.886;9.426;2023-08-12T11:16:07;98040.06;;;29.95;47.46
22104;BME280;11218;48.886;9.426;2023-08-12T11:18:36;98038.06;;;29.96;48.26
22104;BME280;11218;48.886;9.426;2023-08-12T11:21:04;98040.91;;;29.99;49.04
22104;BME280;11218;48.886;9.426;2023-08-12T11:23:33;98034.63;;;30.02;48.36
22104;BME280;11218;48.886;9.426;2023-08-12T11:26:03;98024.47;;;30.17;48.16
22104;BME280;11218;48.886;9.426;2023-08-12T11:28:32;98017.25;;;30.50;47.58
22104;BME280;11218;48.886;9.426;2023-08-12T11:31:00;98020.09;;;30.57;47.00
22104;BME280;11218;48.886;9.426;2023-08-12T11:33:30;98018.09;;;30.54;47.91
22104;BME280;11218;48.886;9.426;2023-08-12T11:35:59;98009.63;;;30.80;47.08
22104;BME280;11218;48.886;9.426;2023-08-12T11:38:27;97997.22;;;31.15;44.78
22104;BME280;11218;48.886;9.426;2023-08-12T11:40:55;97992.19;;;31.42;45.68
22104;BME280;11218;48.886;9.426;2023-08-12T11:43:23;97983.63;;;31.72;44.94
22104;BME280;11218;48.886;9.426;2023-08-12T11:45:55;97979.34;;;31.92;44.57
22104;BME280;11218;48.886;9.426;2023-08-12T11:48:23;97978.56;;;32.09;44.12
22104;BME280;11218;48.886;9.426;2023-08-12T11:50:52;97975.81;;;32.16;41.92
22104;BME280;11218;48.886;9.426;2023-08-12T11:53:20;97985.34;;;32.08;42.35
22104;BME280;11218;48.886;9.426;2023-08-12T11:55:48;98000.56;;;32.32;42.50
22104;BME280;11218;48.886;9.426;2023-08-12T11:58:16;98020.13;;;32.71;42.73
22104;BME280;11218;48.886;9.426;2023-08-12T12:00:46;98013.78;;;33.06;40.59
22104;BME280;11218;48.886;9.426;2023-08-12T12:03:16;98016.56;;;33.10;39.64
22104;BME280;11218;48.886;9.426;2023-08-12T12:05:46;98018.16;;;33.00;40.49
22104;BME280;11218;48.886;9.426;2023-08-12T12:08:15;98012.59;;;32.89;39.84
22104;BME280;11218;48.886;9.426;2023-08-12T12:10:43;98026.13;;;32.80;40.32
22104;BME280;11218;48.886;9.426;2023-08-12T12:13:11;98029.28;;;32.61;40.01
22104;BME280;11218;48.886;9.426;2023-08-12T12:15:41;98061.50;;;32.33;40.27
22104;BME280;11218;48.886;9.426;2023-08-12T12:18:11;98077.38;;;31.53;45.46
22104;BME280;11218;48.886;9.426;2023-08-12T12:20:54;98046.41;;;30.63;49.40
22104;BME280;11218;48.886;9.426;2023-08-12T12:23:27;98060.31;;;28.90;57.10
22104;BME280;11218;48.886;9.426;2023-08-12T12:25:59;98075.25;;;27.50;66.24
22104;BME280;11218;48.886;9.426;2023-08-12T12:28:28;98072.16;;;26.58;73.07
22104;BME280;11218;48.886;9.426;2023-08-12T12:30:56;98095.00;;;25.86;73.27
22104;BME280;11218;48.886;9.426;2023-08-12T12:33:24;98102.41;;;25.21;72.88
22104;BME280;11218;48.886;9.426;2023-08-12T12:35:55;98111.81;;;24.63;72.92
22104;BME280;11218;48.886;9.426;2023-08-12T12:38:26;98125.63;;;24.01;76.38
22104;BME280;11218;48.886;9.426;2023-08-12T12:40:54;98154.25;;;23.58;80.86
22104;BME280;11218;48.886;9.426;2023-08-12T12:43:24;98157.44;;;23.31;82.15
22104;BME280;11218;48.886;9.426;2023-08-12T12:45:52;98168.19;;;23.06;83.17
22104;BME280;11218;48.886;9.426;2023-08-12T12:48:20;98164.03;;;23.00;84.24
22104;BME280;11218;48.886;9.426;2023-08-12T12:50:48;98158.00;;;23.07;84.94
22104;BME280;11218;48.886;9.426;2023-08-12T12:53:18;98154.19;;;22.90;85.59
22104;BME280;11218;48.886;9.426;2023-08-12T12:55:46;98169.88;;;22.73;85.70
22104;BME280;11218;48.886;9.426;2023-08-12T12:58:14;98172.97;;;22.80;86.50
22104;BME280;11218;48.886;9.426;2023-08-12T13:00:43;98179.72;;;22.91;86.63
22104;BME280;11218;48.886;9.426;2023-08-12T13:03:11;98191.63;;;23.04;86.55
22104;BME280;11218;48.886;9.426;2023-08-12T13:05:39;98199.16;;;23.15;86.65
22104;BME280;11218;48.886;9.426;2023-08-12T13:08:07;98211.63;;;23.13;87.51
22104;BME280;11218;48.886;9.426;2023-08-12T13:10:37;98227.63;;;23.11;87.25